Terminal Aerodrome Forecast
Issued by NWS Brownsville, TX

Home | Current Version | Previous Version | Text Only | Print | Product List | Glossary On
Versions: 1 2 3 4 5 6 7 8 9 10 11 12 13 14 15 16 17 18 19 20 21 22
000
FTUS44 KBRO 252326
TAFBRO
TAF
KBRO 252326Z 2600/2624 13011KT P6SM BKN018
      TEMPO 2600/2602 SCT018 OVC250
     FM261500 14015G20KT P6SM BKN025
     FM261700 15018G25KT P6SM SCT030 BKN050 OVC250=

USA.gov is the U.S. government's official web portal to all federal, state and local government web resources and services.